sensor_id;sensor_type;location;lat;lon;timestamp;temperature;humidity
59469;DHT22;45277;52.768;18.262;2023-04-07T00:01:05;2.70;99.90
59469;DHT22;45277;52.768;18.262;2023-04-07T00:02:37;2.70;99.90
59469;DHT22;45277;52.768;18.262;2023-04-07T00:04:08;2.70;99.90
59469;DHT22;45277;52.768;18.262;2023-04-07T00:05:40;2.70;99.90
59469;DHT22;45277;52.768;18.262;2023-04-07T00:07:11;2.70;99.90
59469;DHT22;45277;52.768;18.262;2023-04-07T00:08:42;2.60;99.90
59469;DHT22;45277;52.768;18.262;2023-04-07T00:10:14;2.70;99.90
59469;DHT22;45277;52.768;18.262;2023-04-07T00:11:45;2.70;99.90
59469;DHT22;45277;52.768;18.262;2023-04-07T00:13:18;2.70;99.90
59469;DHT22;45277;52.768;18.262;2023-04-07T00:14:50;2.70;99.90
59469;DHT22;45277;52.768;18.262;2023-04-07T00:16:21;2.70;99.90
59469;DHT22;45277;52.768;18.262;2023-04-07T00:17:52;2.70;99.90
59469;DHT22;45277;52.768;18.262;2023-04-07T00:19:24;2.70;99.90
59469;DHT22;45277;52.768;18.262;2023-04-07T00:20:55;2.70;99.90
59469;DHT22;45277;52.768;18.262;2023-04-07T00:22:27;2.70;99.90
59469;DHT22;45277;52.768;18.262;2023-04-07T00:23:58;2.70;99.90
59469;DHT22;45277;52.768;18.262;2023-04-07T00:25:29;2.60;99.90
59469;DHT22;45277;52.768;18.262;2023-04-07T00:27:01;2.70;99.90
59469;DHT22;45277;52.768;18.262;2023-04-07T00:28:33;2.70;99.90
59469;DHT22;45277;52.768;18.262;2023-04-07T00:30:05;2.70;99.90
59469;DHT22;45277;52.768;18.262;2023-04-07T00:31:36;2.70;99.90
59469;DHT22;45277;52.768;18.262;2023-04-07T00:33:08;2.70;99.90
59469;DHT22;45277;52.768;18.262;2023-04-07T00:34:39;2.70;99.90
59469;DHT22;45277;52.768;18.262;2023-04-07T00:36:10;2.80;99.90
59469;DHT22;45277;52.768;18.262;2023-04-07T00:37:42;2.70;99.90
59469;DHT22;45277;52.768;18.262;2023-04-07T00:39:13;2.80;99.90
59469;DHT22;45277;52.768;18.262;2023-04-07T00:40:45;2.80;99.90
59469;DHT22;45277;52.768;18.262;2023-04-07T00:42:17;2.80;99.90
59469;DHT22;45277;52.768;18.262;2023-04-07T00:43:50;2.70;99.90
59469;DHT22;45277;52.768;18.262;2023-04-07T00:45:21;2.80;99.90
59469;DHT22;45277;52.768;18.262;2023-04-07T00:46:53;2.80;99.90
59469;DHT22;45277;52.768;18.262;2023-04-07T00:48:24;2.80;99.90
59469;DHT22;45277;52.768;18.262;2023-04-07T00:49:55;2.80;99.90
59469;DHT22;45277;52.768;18.262;2023-04-07T00:51:27;2.80;99.90
59469;DHT22;45277;52.768;18.262;2023-04-07T00:52:58;2.80;99.90
59469;DHT22;45277;52.768;18.262;2023-04-07T00:54:30;2.80;99.90
59469;DHT22;45277;52.768;18.262;2023-04-07T00:56:02;2.90;99.90
59469;DHT22;45277;52.768;18.262;2023-04-07T00:57:33;2.80;99.90
59469;DHT22;45277;52.768;18.262;2023-04-07T00:59:04;2.90;99.90
59469;DHT22;45277;52.768;18.262;2023-04-07T01:00:50;2.90;99.90
59469;DHT22;45277;52.768;18.262;2023-04-07T01:03:00;2.90;99.90
59469;DHT22;45277;52.768;18.262;2023-04-07T01:06:12;2.90;99.90
59469;DHT22;45277;52.768;18.262;2023-04-07T01:09:32;3.00;99.90
59469;DHT22;45277;52.768;18.262;2023-04-07T01:11:11;2.90;99.90
59469;DHT22;45277;52.768;18.262;2023-04-07T01:14:34;2.90;99.90
59469;DHT22;45277;52.768;18.262;2023-04-07T01:16:14;2.90;99.90
59469;DHT22;45277;52.768;18.262;2023-04-07T01:17:52;3.00;99.90
59469;DHT22;45277;52.768;18.262;2023-04-07T01:20:02;3.00;99.90
59469;DHT22;45277;52.768;18.262;2023-04-07T01:21:43;3.00;99.90
59469;DHT22;45277;52.768;18.262;2023-04-07T01:23:47;3.00;99.90
59469;DHT22;45277;52.768;18.262;2023-04-07T01:25:34;3.10;99.90
59469;DHT22;45277;52.768;18.262;2023-04-07T01:30:57;3.10;99.90
59469;DHT22;45277;52.768;18.262;2023-04-07T01:32:30;3.10;99.90
59469;DHT22;45277;52.768;18.262;2023-04-07T01:34:03;3.10;99.90
59469;DHT22;45277;52.768;18.262;2023-04-07T01:35:36;3.10;99.90
59469;DHT22;45277;52.768;18.262;2023-04-07T01:37:09;3.10;99.90
59469;DHT22;45277;52.768;18.262;2023-04-07T01:38:42;3.10;99.90
59469;DHT22;45277;52.768;18.262;2023-04-07T01:40:14;3.10;99.90
59469;DHT22;45277;52.768;18.262;2023-04-07T01:41:47;3.20;99.90
59469;DHT22;45277;52.768;18.262;2023-04-07T01:43:20;3.20;99.90
59469;DHT22;45277;52.768;18.262;2023-04-07T01:44:52;3.20;99.90
59469;DHT22;45277;52.768;18.262;2023-04-07T01:46:24;3.20;99.90
59469;DHT22;45277;52.768;18.262;2023-04-07T01:47:55;3.20;99.90
59469;DHT22;45277;52.768;18.262;2023-04-07T01:49:29;3.20;99.90
59469;DHT22;45277;52.768;18.262;2023-04-07T01:51:03;3.20;99.90
59469;DHT22;45277;52.768;18.262;2023-04-07T01:52:35;3.20;99.90
59469;DHT22;45277;52.768;18.262;2023-04-07T01:54:08;3.20;99.90
59469;DHT22;45277;52.768;18.262;2023-04-07T01:55:40;3.20;99.90
59469;DHT22;45277;52.768;18.262;2023-04-07T01:57:11;3.20;99.90
59469;DHT22;45277;52.768;18.262;2023-04-07T01:58:43;3.20;99.90
59469;DHT22;45277;52.768;18.262;2023-04-07T02:00:14;3.30;99.90
59469;DHT22;45277;52.768;18.262;2023-04-07T02:01:46;3.20;99.90
59469;DHT22;45277;52.768;18.262;2023-04-07T02:03:26;3.30;99.90
59469;DHT22;45277;52.768;18.262;2023-04-07T02:05:02;3.30;99.90
59469;DHT22;45277;52.768;18.262;2023-04-07T02:06:42;3.30;99.90
59469;DHT22;45277;52.768;18.262;2023-04-07T02:08:16;3.30;99.90
59469;DHT22;45277;52.768;18.262;2023-04-07T02:09:50;3.30;99.90
59469;DHT22;45277;52.768;18.262;2023-04-07T02:11:25;3.30;99.90
59469;DHT22;45277;52.768;18.262;2023-04-07T02:12:58;3.30;99.90
59469;DHT22;45277;52.768;18.262;2023-04-07T02:14:31;3.30;99.90
59469;DHT22;45277;52.768;18.262;2023-04-07T02:16:03;3.30;99.90
59469;DHT22;45277;52.768;18.262;2023-04-07T02:17:41;3.30;99.90
59469;DHT22;45277;52.768;18.262;2023-04-07T02:19:13;3.30;99.90
59469;DHT22;45277;52.768;18.262;2023-04-07T02:20:45;3.30;99.90
59469;DHT22;45277;52.768;18.262;2023-04-07T02:22:17;3.30;99.90
59469;DHT22;45277;52.768;18.262;2023-04-07T02:23:49;3.30;99.90
59469;DHT22;45277;52.768;18.262;2023-04-07T02:25:30;3.30;99.90
59469;DHT22;45277;52.768;18.262;2023-04-07T02:27:01;3.30;99.90
59469;DHT22;45277;52.768;18.262;2023-04-07T02:28:33;3.30;99.90
59469;DHT22;45277;52.768;18.262;2023-04-07T02:30:04;3.30;99.90
59469;DHT22;45277;52.768;18.262;2023-04-07T02:31:36;3.30;99.90
59469;DHT22;45277;52.768;18.262;2023-04-07T02:33:07;3.30;99.90
59469;DHT22;45277;52.768;18.262;2023-04-07T02:34:39;3.30;99.90
59469;DHT22;45277;52.768;18.262;2023-04-07T02:36:10;3.40;99.90
59469;DHT22;45277;52.768;18.262;2023-04-07T02:37:42;3.40;99.90
59469;DHT22;45277;52.768;18.262;2023-04-07T02:39:14;3.40;99.90
59469;DHT22;45277;52.768;18.262;2023-04-07T02:40:46;3.40;99.90
59469;DHT22;45277;52.768;18.262;2023-04-07T02:42:17;3.40;99.90
59469;DHT22;45277;52.768;18.262;2023-04-07T02:43:48;3.40;99.90
59469;DHT22;45277;52.768;18.262;2023-04-07T02:45:20;3.40;99.90
59469;DHT22;45277;52.768;18.262;2023-04-07T02:46:51;3.40;99.90
59469;DHT22;45277;52.768;18.262;2023-04-07T02:48:23;3.40;99.90
59469;DHT22;45277;52.768;18.262;2023-04-07T02:49:54;3.40;99.90
59469;DHT22;45277;52.768;18.262;2023-04-07T02:51:26;3.40;99.90
59469;DHT22;45277;52.768;18.262;2023-04-07T02:52:57;3.40;99.90
59469;DHT22;45277;52.768;18.262;2023-04-07T02:54:29;3.50;99.90
59469;DHT22;45277;52.768;18.262;2023-04-07T02:56:00;3.40;99.90
59469;DHT22;45277;52.768;18.262;2023-04-07T02:57:31;3.40;99.90
59469;DHT22;45277;52.768;18.262;2023-04-07T02:59:03;3.50;99.90
59469;DHT22;45277;52.768;18.262;2023-04-07T03:00:34;3.50;99.90
59469;DHT22;45277;52.768;18.262;2023-04-07T03:02:06;3.50;99.90
59469;DHT22;45277;52.768;18.262;2023-04-07T03:03:38;3.50;99.90
59469;DHT22;45277;52.768;18.262;2023-04-07T03:05:09;3.50;99.90
59469;DHT22;45277;52.768;18.262;2023-04-07T03:06:41;3.50;99.90
59469;DHT22;45277;52.768;18.262;2023-04-07T03:08:12;3.50;99.90
59469;DHT22;45277;52.768;18.262;2023-04-07T03:09:43;3.50;99.90
59469;DHT22;45277;52.768;18.262;2023-04-07T03:11:15;3.50;99.90
59469;DHT22;45277;52.768;18.262;2023-04-07T03:12:46;3.50;99.90
59469;DHT22;45277;52.768;18.262;2023-04-07T03:14:18;3.50;99.90
59469;DHT22;45277;52.768;18.262;2023-04-07T03:15:49;3.60;99.90
59469;DHT22;45277;52.768;18.262;2023-04-07T03:17:21;3.60;99.90
59469;DHT22;45277;52.768;18.262;2023-04-07T03:18:52;3.60;99.90
59469;DHT22;45277;52.768;18.262;2023-04-07T03:20:24;3.60;99.90
59469;DHT22;45277;52.768;18.262;2023-04-07T03:21:55;3.60;99.90
59469;DHT22;45277;52.768;18.262;2023-04-07T03:23:26;3.60;99.90
59469;DHT22;45277;52.768;18.262;2023-04-07T03:24:59;3.60;99.90
59469;DHT22;45277;52.768;18.262;2023-04-07T03:26:31;3.60;99.90
59469;DHT22;45277;52.768;18.262;2023-04-07T03:28:03;3.60;99.90
59469;DHT22;45277;52.768;18.262;2023-04-07T03:29:34;3.70;99.90
59469;DHT22;45277;52.768;18.262;2023-04-07T03:31:06;3.60;99.90
59469;DHT22;45277;52.768;18.262;2023-04-07T03:32:37;3.70;99.90
59469;DHT22;45277;52.768;18.262;2023-04-07T03:34:09;3.70;99.90
59469;DHT22;45277;52.768;18.262;2023-04-07T03:35:41;3.70;99.90
59469;DHT22;45277;52.768;18.262;2023-04-07T03:37:13;3.60;99.90
59469;DHT22;45277;52.768;18.262;2023-04-07T03:38:46;3.70;99.90
59469;DHT22;45277;52.768;18.262;2023-04-07T03:40:18;3.70;99.90
59469;DHT22;45277;52.768;18.262;2023-04-07T03:41:49;3.70;99.90
59469;DHT22;45277;52.768;18.262;2023-04-07T03:43:21;3.70;99.90
59469;DHT22;45277;52.768;18.262;2023-04-07T03:44:53;3.70;99.90
59469;DHT22;45277;52.768;18.262;2023-04-07T03:46:24;3.70;99.90
59469;DHT22;45277;52.768;18.262;2023-04-07T03:47:56;3.70;99.90
59469;DHT22;45277;52.768;18.262;2023-04-07T03:49:28;3.80;99.90
59469;DHT22;45277;52.768;18.262;2023-04-07T03:51:01;3.70;99.90
59469;DHT22;45277;52.768;18.262;2023-04-07T03:52:32;3.80;99.90
59469;DHT22;45277;52.768;18.262;2023-04-07T03:54:04;3.70;99.90
59469;DHT22;45277;52.768;18.262;2023-04-07T03:55:35;3.80;99.90
59469;DHT22;45277;52.768;18.262;2023-04-07T03:57:07;3.70;99.90
59469;DHT22;45277;52.768;18.262;2023-04-07T03:58:38;3.80;99.90
59469;DHT22;45277;52.768;18.262;2023-04-07T04:00:13;3.80;99.90
59469;DHT22;45277;52.768;18.262;2023-04-07T04:01:44;3.80;99.90
59469;DHT22;45277;52.768;18.262;2023-04-07T04:03:16;3.80;99.90
59469;DHT22;45277;52.768;18.262;2023-04-07T04:04:47;3.80;99.90
59469;DHT22;45277;52.768;18.262;2023-04-07T04:06:18;3.80;99.90
59469;DHT22;45277;52.768;18.262;2023-04-07T04:07:50;3.90;99.90
59469;DHT22;45277;52.768;18.262;2023-04-07T04:09:22;3.90;99.90
59469;DHT22;45277;52.768;18.262;2023-04-07T04:10:54;3.90;99.90
59469;DHT22;45277;52.768;18.262;2023-04-07T04:12:26;3.90;99.90
59469;DHT22;45277;52.768;18.262;2023-04-07T04:13:57;3.90;99.90
59469;DHT22;45277;52.768;18.262;2023-04-07T04:15:28;3.90;99.90
59469;DHT22;45277;52.768;18.262;2023-04-07T04:17:00;3.90;99.90
59469;DHT22;45277;52.768;18.262;2023-04-07T04:18:31;3.90;99.90
59469;DHT22;45277;52.768;18.262;2023-04-07T04:20:03;3.90;99.90
59469;DHT22;45277;52.768;18.262;2023-04-07T04:21:35;3.90;99.90
59469;DHT22;45277;52.768;18.262;2023-04-07T04:23:06;3.90;99.90
59469;DHT22;45277;52.768;18.262;2023-04-07T04:24:37;3.90;99.90
59469;DHT22;45277;52.768;18.262;2023-04-07T04:26:09;3.90;99.90
59469;DHT22;45277;52.768;18.262;2023-04-07T04:27:40;3.90;99.90
59469;DHT22;45277;52.768;18.262;2023-04-07T04:29:12;3.90;99.90
59469;DHT22;45277;52.768;18.262;2023-04-07T04:30:43;3.90;99.90
59469;DHT22;45277;52.768;18.262;2023-04-07T04:32:14;4.00;99.90
59469;DHT22;45277;52.768;18.262;2023-04-07T04:33:49;4.00;99.90
59469;DHT22;45277;52.768;18.262;2023-04-07T04:35:20;4.00;99.90
59469;DHT22;45277;52.768;18.262;2023-04-07T04:36:52;4.00;99.90
59469;DHT22;45277;52.768;18.262;2023-04-07T04:38:23;4.00;99.90
59469;DHT22;45277;52.768;18.262;2023-04-07T04:39:55;4.00;99.90
59469;DHT22;45277;52.768;18.262;2023-04-07T04:41:26;4.00;99.90
59469;DHT22;45277;52.768;18.262;2023-04-07T04:42:57;4.10;99.90
59469;DHT22;45277;52.768;18.262;2023-04-07T04:44:29;4.10;99.90
59469;DHT22;45277;52.768;18.262;2023-04-07T04:46:00;4.10;99.90
59469;DHT22;45277;52.768;18.262;2023-04-07T04:47:31;4.10;99.90
59469;DHT22;45277;52.768;18.262;2023-04-07T04:49:03;4.10;99.90
59469;DHT22;45277;52.768;18.262;2023-04-07T04:50:34;4.00;99.90
59469;DHT22;45277;52.768;18.262;2023-04-07T04:52:06;4.10;99.90
59469;DHT22;45277;52.768;18.262;2023-04-07T04:53:38;4.10;99.90
59469;DHT22;45277;52.768;18.262;2023-04-07T04:55:09;4.10;99.90
59469;DHT22;45277;52.768;18.262;2023-04-07T04:56:41;4.10;99.90
59469;DHT22;45277;52.768;18.262;2023-04-07T04:58:13;4.10;99.90
59469;DHT22;45277;52.768;18.262;2023-04-07T04:59:44;4.20;99.90
59469;DHT22;45277;52.768;18.262;2023-04-07T05:01:15;4.10;99.90
59469;DHT22;45277;52.768;18.262;2023-04-07T05:02:47;4.10;99.90
59469;DHT22;45277;52.768;18.262;2023-04-07T05:04:18;4.10;99.90
59469;DHT22;45277;52.768;18.262;2023-04-07T05:05:49;4.20;99.90
59469;DHT22;45277;52.768;18.262;2023-04-07T05:07:21;4.10;99.90
59469;DHT22;45277;52.768;18.262;2023-04-07T05:08:53;4.10;99.90
59469;DHT22;45277;52.768;18.262;2023-04-07T05:10:24;4.20;99.90
59469;DHT22;45277;52.768;18.262;2023-04-07T05:11:56;4.20;99.90
59469;DHT22;45277;52.768;18.262;2023-04-07T05:13:27;4.20;99.90
59469;DHT22;45277;52.768;18.262;2023-04-07T05:15:01;4.20;99.90
59469;DHT22;45277;52.768;18.262;2023-04-07T05:16:33;4.20;99.90
59469;DHT22;45277;52.768;18.262;2023-04-07T05:18:04;4.20;99.90
59469;DHT22;45277;52.768;18.262;2023-04-07T05:19:36;4.20;99.90
59469;DHT22;45277;52.768;18.262;2023-04-07T05:21:07;4.20;99.90
59469;DHT22;45277;52.768;18.262;2023-04-07T05:22:39;4.20;99.90
59469;DHT22;45277;52.768;18.262;2023-04-07T05:24:11;4.30;99.90
59469;DHT22;45277;52.768;18.262;2023-04-07T05:25:43;4.30;99.90
59469;DHT22;45277;52.768;18.262;2023-04-07T05:27:14;4.30;99.90
59469;DHT22;45277;52.768;18.262;2023-04-07T05:28:45;4.30;99.90
59469;DHT22;45277;52.768;18.262;2023-04-07T05:30:17;4.30;99.90
59469;DHT22;45277;52.768;18.262;2023-04-07T05:31:49;4.30;99.90
59469;DHT22;45277;52.768;18.262;2023-04-07T05:33:20;4.40;99.90
59469;DHT22;45277;52.768;18.262;2023-04-07T05:34:52;4.40;99.90
59469;DHT22;45277;52.768;18.262;2023-04-07T05:36:23;4.40;99.90
59469;DHT22;45277;52.768;18.262;2023-04-07T05:37:55;4.40;99.90
59469;DHT22;45277;52.768;18.262;2023-04-07T05:39:27;4.40;99.90
59469;DHT22;45277;52.768;18.262;2023-04-07T05:40:58;4.40;99.90
59469;DHT22;45277;52.768;18.262;2023-04-07T05:42:30;4.30;99.90
59469;DHT22;45277;52.768;18.262;2023-04-07T05:44:01;4.40;99.90
59469;DHT22;45277;52.768;18.262;2023-04-07T05:45:33;4.50;99.90
59469;DHT22;45277;52.768;18.262;2023-04-07T05:47:04;4.50;99.90
59469;DHT22;45277;52.768;18.262;2023-04-07T05:48:39;4.50;99.90
59469;DHT22;45277;52.768;18.262;2023-04-07T05:50:10;4.50;99.90
59469;DHT22;45277;52.768;18.262;2023-04-07T05:51:44;4.60;99.90
59469;DHT22;45277;52.768;18.262;2023-04-07T05:53:15;4.60;99.90
59469;DHT22;45277;52.768;18.262;2023-04-07T05:54:47;4.60;99.90
59469;DHT22;45277;52.768;18.262;2023-04-07T05:56:18;4.60;99.90
59469;DHT22;45277;52.768;18.262;2023-04-07T05:57:51;4.50;99.90
59469;DHT22;45277;52.768;18.262;2023-04-07T05:59:23;4.60;99.90
59469;DHT22;45277;52.768;18.262;2023-04-07T06:00:55;4.60;99.90
59469;DHT22;45277;52.768;18.262;2023-04-07T06:02:26;4.60;99.90
59469;DHT22;45277;52.768;18.262;2023-04-07T06:03:58;4.60;99.90
59469;DHT22;45277;52.768;18.262;2023-04-07T06:05:29;4.60;99.90
59469;DHT22;45277;52.768;18.262;2023-04-07T06:07:02;4.70;99.90
59469;DHT22;45277;52.768;18.262;2023-04-07T06:08:33;4.70;99.90
59469;DHT22;45277;52.768;18.262;2023-04-07T06:10:05;4.70;99.90
59469;DHT22;45277;52.768;18.262;2023-04-07T06:11:36;4.60;99.90
59469;DHT22;45277;52.768;18.262;2023-04-07T06:13:08;4.70;99.90
59469;DHT22;45277;52.768;18.262;2023-04-07T06:14:39;4.70;99.90
59469;DHT22;45277;52.768;18.262;2023-04-07T06:16:11;4.70;99.90
59469;DHT22;45277;52.768;18.262;2023-04-07T06:17:42;4.70;99.90
59469;DHT22;45277;52.768;18.262;2023-04-07T06:19:15;4.70;99.90
59469;DHT22;45277;52.768;18.262;2023-04-07T06:20:47;4.70;99.90
59469;DHT22;45277;52.768;18.262;2023-04-07T06:22:18;4.70;99.90
59469;DHT22;45277;52.768;18.262;2023-04-07T06:23:49;4.70;99.90
59469;DHT22;45277;52.768;18.262;2023-04-07T06:25:21;4.80;99.90
59469;DHT22;45277;52.768;18.262;2023-04-07T06:26:53;4.80;99.90
59469;DHT22;45277;52.768;18.262;2023-04-07T06:28:26;4.80;99.90
59469;DHT22;45277;52.768;18.262;2023-04-07T06:29:58;4.80;99.90
59469;DHT22;45277;52.768;18.262;2023-04-07T06:31:29;4.80;99.90
59469;DHT22;45277;52.768;18.262;2023-04-07T06:33:00;4.80;99.90
59469;DHT22;45277;52.768;18.262;2023-04-07T06:34:32;4.70;99.90
59469;DHT22;45277;52.768;18.262;2023-04-07T06:36:04;4.80;99.90
59469;DHT22;45277;52.768;18.262;2023-04-07T06:37:36;4.70;99.90
59469;DHT22;45277;52.768;18.262;2023-04-07T06:39:07;4.80;99.90
59469;DHT22;45277;52.768;18.262;2023-04-07T06:40:39;4.80;99.90
59469;DHT22;45277;52.768;18.262;2023-04-07T06:42:10;4.80;99.90
59469;DHT22;45277;52.768;18.262;2023-04-07T06:43:45;4.80;99.90
59469;DHT22;45277;52.768;18.262;2023-04-07T06:45:17;4.80;99.90
59469;DHT22;45277;52.768;18.262;2023-04-07T06:46:48;4.80;99.90
59469;DHT22;45277;52.768;18.262;2023-04-07T06:48:23;4.80;99.90
59469;DHT22;45277;52.768;18.262;2023-04-07T06:49:54;4.80;99.90
59469;DHT22;45277;52.768;18.262;2023-04-07T06:51:26;4.80;99.90
59469;DHT22;45277;52.768;18.262;2023-04-07T06:52:58;4.80;99.90
59469;DHT22;45277;52.768;18.262;2023-04-07T06:54:29;4.80;99.90
59469;DHT22;45277;52.768;18.262;2023-04-07T06:56:05;4.80;99.90
59469;DHT22;45277;52.768;18.262;2023-04-07T06:57:37;4.80;99.90
59469;DHT22;45277;52.768;18.262;2023-04-07T06:59:09;4.80;99.90
59469;DHT22;45277;52.768;18.262;2023-04-07T07:00:40;4.80;99.90
59469;DHT22;45277;52.768;18.262;2023-04-07T07:02:12;4.80;99.90
59469;DHT22;45277;52.768;18.262;2023-04-07T07:03:43;4.80;99.90
59469;DHT22;45277;52.768;18.262;2023-04-07T07:05:15;4.80;99.90
59469;DHT22;45277;52.768;18.262;2023-04-07T07:06:46;4.80;99.90
59469;DHT22;45277;52.768;18.262;2023-04-07T07:08:18;4.90;99.90
59469;DHT22;45277;52.768;18.262;2023-04-07T07:09:49;4.80;99.90
59469;DHT22;45277;52.768;18.262;2023-04-07T07:11:21;4.80;99.90
59469;DHT22;45277;52.768;18.262;2023-04-07T07:12:53;4.90;99.90
59469;DHT22;45277;52.768;18.262;2023-04-07T07:14:24;4.90;99.90
59469;DHT22;45277;52.768;18.262;2023-04-07T07:15:56;4.90;99.90
59469;DHT22;45277;52.768;18.262;2023-04-07T07:17:27;4.80;99.90
59469;DHT22;45277;52.768;18.262;2023-04-07T07:18:58;4.90;99.90
59469;DHT22;45277;52.768;18.262;2023-04-07T07:20:30;4.90;99.90
59469;DHT22;45277;52.768;18.262;2023-04-07T07:22:02;4.90;99.90
59469;DHT22;45277;52.768;18.262;2023-04-07T07:23:34;4.90;99.90
59469;DHT22;45277;52.768;18.262;2023-04-07T07:25:06;4.90;99.90
59469;DHT22;45277;52.768;18.262;2023-04-07T07:26:38;5.00;99.90
59469;DHT22;45277;52.768;18.262;2023-04-07T07:28:09;5.00;99.90
59469;DHT22;45277;52.768;18.262;2023-04-07T07:29:41;5.10;99.90
59469;DHT22;45277;52.768;18.262;2023-04-07T07:31:13;5.10;99.90
59469;DHT22;45277;52.768;18.262;2023-04-07T07:32:45;5.20;99.90
59469;DHT22;45277;52.768;18.262;2023-04-07T07:34:17;5.20;99.90
59469;DHT22;45277;52.768;18.262;2023-04-07T07:35:49;5.20;99.90
59469;DHT22;45277;52.768;18.262;2023-04-07T07:37:20;5.20;99.90
59469;DHT22;45277;52.768;18.262;2023-04-07T07:38:52;5.30;99.90
59469;DHT22;45277;52.768;18.262;2023-04-07T07:40:23;5.30;99.90
59469;DHT22;45277;52.768;18.262;2023-04-07T07:41:55;5.40;99.90
59469;DHT22;45277;52.768;18.262;2023-04-07T07:43:28;5.40;99.90
59469;DHT22;45277;52.768;18.262;2023-04-07T07:44:59;5.50;99.90
59469;DHT22;45277;52.768;18.262;2023-04-07T07:46:31;5.60;99.90
59469;DHT22;45277;52.768;18.262;2023-04-07T07:48:02;5.60;99.90
59469;DHT22;45277;52.768;18.262;2023-04-07T07:49:34;5.70;99.90
59469;DHT22;45277;52.768;18.262;2023-04-07T07:51:06;5.60;99.90
59469;DHT22;45277;52.768;18.262;2023-04-07T07:52:37;5.60;99.90
59469;DHT22;45277;52.768;18.262;2023-04-07T07:54:09;5.70;99.90
59469;DHT22;45277;52.768;18.262;2023-04-07T07:55:40;5.70;99.90
59469;DHT22;45277;52.768;18.262;2023-04-07T07:57:12;5.70;99.90
59469;DHT22;45277;52.768;18.262;2023-04-07T07:58:44;5.80;99.90
59469;DHT22;45277;52.768;18.262;2023-04-07T08:00:15;5.80;99.90
59469;DHT22;45277;52.768;18.262;2023-04-07T08:01:47;5.80;99.90
59469;DHT22;45277;52.768;18.262;2023-04-07T08:03:18;5.90;99.90
59469;DHT22;45277;52.768;18.262;2023-04-07T08:04:52;5.90;99.90
59469;DHT22;45277;52.768;18.262;2023-04-07T08:06:24;5.90;99.90
59469;DHT22;45277;52.768;18.262;2023-04-07T08:07:57;5.90;99.90
59469;DHT22;45277;52.768;18.262;2023-04-07T08:09:29;5.90;99.90
59469;DHT22;45277;52.768;18.262;2023-04-07T08:11:02;5.90;99.90
59469;DHT22;45277;52.768;18.262;2023-04-07T08:12:34;5.80;99.90
59469;DHT22;45277;52.768;18.262;2023-04-07T08:14:06;5.90;99.90
59469;DHT22;45277;52.768;18.262;2023-04-07T08:15:38;5.90;99.90
59469;DHT22;45277;52.768;18.262;2023-04-07T08:17:10;5.80;99.90
59469;DHT22;45277;52.768;18.262;2023-04-07T08:18:42;5.80;99.90
59469;DHT22;45277;52.768;18.262;2023-04-07T08:20:14;5.90;99.90
59469;DHT22;45277;52.768;18.262;2023-04-07T08:21:46;5.90;99.90
59469;DHT22;45277;52.768;18.262;2023-04-07T08:23:18;6.00;99.90
59469;DHT22;45277;52.768;18.262;2023-04-07T08:24:50;5.90;99.90
59469;DHT22;45277;52.768;18.262;2023-04-07T08:26:21;6.00;99.90
59469;DHT22;45277;52.768;18.262;2023-04-07T08:27:53;6.10;99.90
59469;DHT22;45277;52.768;18.262;2023-04-07T08:29:24;6.10;99.90
59469;DHT22;45277;52.768;18.262;2023-04-07T08:30:56;6.10;99.90
59469;DHT22;45277;52.768;18.262;2023-04-07T08:32:37;6.20;99.90
59469;DHT22;45277;52.768;18.262;2023-04-07T08:34:09;6.20;99.90
59469;DHT22;45277;52.768;18.262;2023-04-07T08:35:40;6.40;99.90
59469;DHT22;45277;52.768;18.262;2023-04-07T08:37:11;6.40;99.90
59469;DHT22;45277;52.768;18.262;2023-04-07T08:38:43;6.60;99.90
59469;DHT22;45277;52.768;18.262;2023-04-07T08:40:15;6.60;99.90
59469;DHT22;45277;52.768;18.262;2023-04-07T08:41:48;6.70;99.90
59469;DHT22;45277;52.768;18.262;2023-04-07T08:43:21;6.80;99.90
59469;DHT22;45277;52.768;18.262;2023-04-07T08:44:55;6.90;99.90
59469;DHT22;45277;52.768;18.262;2023-04-07T08:46:28;6.80;99.90
59469;DHT22;45277;52.768;18.262;2023-04-07T08:48:05;6.80;99.90
59469;DHT22;45277;52.768;18.262;2023-04-07T08:49:43;6.70;99.90
59469;DHT22;45277;52.768;18.262;2023-04-07T08:51:29;6.80;99.90
59469;DHT22;45277;52.768;18.262;2023-04-07T08:53:05;6.80;99.90
59469;DHT22;45277;52.768;18.262;2023-04-07T08:54:38;6.90;99.90
59469;DHT22;45277;52.768;18.262;2023-04-07T08:56:13;6.90;99.90
59469;DHT22;45277;52.768;18.262;2023-04-07T08:57:46;6.90;99.90
59469;DHT22;45277;52.768;18.262;2023-04-07T08:59:18;7.00;99.90
59469;DHT22;45277;52.768;18.262;2023-04-07T09:00:55;7.00;99.90
59469;DHT22;45277;52.768;18.262;2023-04-07T09:02:28;7.00;99.90
59469;DHT22;45277;52.768;18.262;2023-04-07T09:04:03;7.00;99.90
59469;DHT22;45277;52.768;18.262;2023-04-07T09:05:35;7.10;99.90
59469;DHT22;45277;52.768;18.262;2023-04-07T09:07:07;7.10;99.90
59469;DHT22;45277;52.768;18.262;2023-04-07T09:08:38;7.20;99.90
59469;DHT22;45277;52.768;18.262;2023-04-07T09:10:10;7.20;99.90
59469;DHT22;45277;52.768;18.262;2023-04-07T09:11:42;7.30;99.90
59469;DHT22;45277;52.768;18.262;2023-04-07T09:13:13;7.30;99.90
59469;DHT22;45277;52.768;18.262;2023-04-07T09:14:45;7.50;99.90
59469;DHT22;45277;52.768;18.262;2023-04-07T09:16:17;7.50;99.90
59469;DHT22;45277;52.768;18.262;2023-04-07T09:17:49;7.60;99.90
59469;DHT22;45277;52.768;18.262;2023-04-07T09:19:21;7.60;99.90
59469;DHT22;45277;52.768;18.262;2023-04-07T09:21:03;7.70;99.90
59469;DHT22;45277;52.768;18.262;2023-04-07T09:22:39;7.80;99.90
59469;DHT22;45277;52.768;18.262;2023-04-07T09:24:30;7.70;99.90
59469;DHT22;45277;52.768;18.262;2023-04-07T09:26:18;7.80;99.90
59469;DHT22;45277;52.768;18.262;2023-04-07T09:28:03;7.90;99.90
59469;DHT22;45277;52.768;18.262;2023-04-07T09:29:35;7.90;99.90
59469;DHT22;45277;52.768;18.262;2023-04-07T09:31:07;8.00;99.90
59469;DHT22;45277;52.768;18.262;2023-04-07T09:32:38;8.10;99.90
59469;DHT22;45277;52.768;18.262;2023-04-07T09:34:25;8.10;99.90
59469;DHT22;45277;52.768;18.262;2023-04-07T09:35:58;8.00;99.90
59469;DHT22;45277;52.768;18.262;2023-04-07T09:37:29;8.20;99.90
59469;DHT22;45277;52.768;18.262;2023-04-07T09:39:07;8.30;99.90
59469;DHT22;45277;52.768;18.262;2023-04-07T09:40:39;8.40;99.90
59469;DHT22;45277;52.768;18.262;2023-04-07T09:42:10;8.40;99.90
59469;DHT22;45277;52.768;18.262;2023-04-07T09:43:44;8.40;99.90
59469;DHT22;45277;52.768;18.262;2023-04-07T09:45:23;8.40;99.90
59469;DHT22;45277;52.768;18.262;2023-04-07T09:46:56;8.40;99.90
59469;DHT22;45277;52.768;18.262;2023-04-07T09:48:28;8.40;99.90
59469;DHT22;45277;52.768;18.262;2023-04-07T09:50:01;8.50;99.90
59469;DHT22;45277;52.768;18.262;2023-04-07T09:51:36;8.70;99.90
59469;DHT22;45277;52.768;18.262;2023-04-07T09:53:08;8.60;99.90
59469;DHT22;45277;52.768;18.262;2023-04-07T09:54:40;8.60;99.90